createdAt,value
2018-10-17T00:01:53.194Z,7.90
2018-10-17T00:04:28.853Z,7.90
2018-10-17T00:07:04.508Z,7.90
2018-10-17T00:09:39.755Z,7.70
2018-10-17T00:12:16.446Z,7.70
2018-10-17T00:14:53.079Z,7.60
2018-10-17T00:17:29.433Z,7.60
2018-10-17T00:20:09.890Z,7.60
2018-10-17T00:22:45.658Z,7.70
2018-10-17T00:25:21.465Z,7.70
2018-10-17T00:27:57.473Z,7.70
2018-10-17T00:30:33.396Z,7.70
2018-10-17T00:33:09.443Z,7.80
2018-10-17T00:35:47.069Z,7.70
2018-10-17T00:38:23.294Z,7.60
2018-10-17T00:40:59.479Z,7.60
2018-10-17T00:43:36.970Z,7.60
2018-10-17T00:46:12.383Z,7.60
2018-10-17T00:48:49.838Z,7.60
2018-10-17T00:51:26.339Z,7.50
2018-10-17T00:54:03.299Z,7.50
2018-10-17T00:56:39.093Z,7.40
2018-10-17T00:59:17.005Z,7.50
2018-10-17T01:01:52.767Z,7.60
2018-10-17T01:04:28.408Z,7.50
2018-10-17T01:07:08.580Z,7.40
2018-10-17T01:09:45.981Z,7.40
2018-10-17T01:12:21.792Z,7.30
2018-10-17T01:14:57.685Z,7.40
2018-10-17T01:17:32.931Z,7.40
2018-10-17T01:20:10.935Z,7.50
2018-10-17T01:22:47.461Z,7.50
2018-10-17T01:25:23.683Z,7.40
2018-10-17T01:27:59.379Z,7.40
2018-10-17T01:30:35.393Z,7.30
2018-10-17T01:35:51.343Z,7.10
2018-10-17T01:38:27.100Z,7.00
2018-10-17T01:41:04.993Z,6.90
2018-10-17T01:43:40.525Z,6.80
2018-10-17T01:46:17.523Z,6.90
2018-10-17T01:51:34.342Z,6.90
2018-10-17T01:54:10.569Z,6.90
2018-10-17T01:56:46.356Z,6.80
2018-10-17T01:59:22.520Z,6.80
2018-10-17T02:01:58.259Z,6.90
2018-10-17T02:04:33.894Z,6.90
2018-10-17T02:07:10.249Z,6.90
2018-10-17T02:09:46.354Z,6.90
2018-10-17T02:12:23.108Z,6.70
2018-10-17T02:14:59.074Z,6.70
2018-10-17T02:17:34.343Z,6.70
2018-10-17T02:20:13.609Z,6.80
2018-10-17T02:22:51.244Z,6.80
2018-10-17T02:25:28.354Z,6.70
2018-10-17T02:28:04.272Z,6.80
2018-10-17T02:30:40.413Z,6.70
2018-10-17T02:33:16.928Z,6.60
2018-10-17T02:35:52.614Z,6.60
2018-10-17T02:38:29.189Z,6.50
2018-10-17T02:41:05.807Z,6.30
2018-10-17T02:43:42.380Z,6.30
2018-10-17T02:46:18.247Z,6.30
2018-10-17T02:48:53.667Z,6.40
2018-10-17T02:51:29.649Z,6.40
2018-10-17T02:54:06.182Z,6.40
2018-10-17T02:56:41.207Z,6.50
2018-10-17T02:59:18.022Z,6.50
2018-10-17T03:01:53.444Z,6.30
2018-10-17T03:04:32.111Z,6.10
2018-10-17T03:07:09.047Z,6.00
2018-10-17T03:09:44.584Z,6.10
2018-10-17T03:12:20.988Z,6.10
2018-10-17T03:14:56.758Z,6.20
2018-10-17T03:17:34.798Z,6.20
2018-10-17T03:20:09.858Z,6.30
2018-10-17T03:22:46.766Z,6.20
2018-10-17T03:25:22.962Z,6.00
2018-10-17T03:28:00.970Z,6.00
2018-10-17T03:30:39.565Z,5.90
2018-10-17T03:33:15.933Z,6.00
2018-10-17T03:35:51.919Z,5.90
2018-10-17T03:38:28.236Z,5.80
2018-10-17T03:41:05.076Z,5.70
2018-10-17T03:43:42.821Z,5.60
2018-10-17T03:46:19.415Z,5.60
2018-10-17T03:48:55.602Z,5.80
2018-10-17T03:51:32.049Z,5.90
2018-10-17T03:54:08.705Z,5.90
2018-10-17T03:56:49.357Z,5.90
2018-10-17T03:59:25.551Z,5.80
2018-10-17T04:04:43.763Z,5.70
2018-10-17T04:07:19.941Z,5.70
2018-10-17T04:09:55.795Z,5.70
2018-10-17T04:12:32.059Z,5.70
2018-10-17T04:15:08.177Z,5.70
2018-10-17T04:17:46.491Z,5.60
2018-10-17T04:20:30.075Z,5.60
2018-10-17T04:23:07.314Z,5.70
2018-10-17T04:25:45.440Z,5.70
2018-10-17T04:28:21.228Z,5.70
2018-10-17T04:30:59.443Z,5.60
2018-10-17T04:33:40.490Z,5.50
2018-10-17T04:36:16.260Z,5.50
2018-10-17T04:38:54.244Z,5.40
2018-10-17T04:41:30.461Z,5.30
2018-10-17T04:46:53.082Z,5.20
2018-10-17T04:49:28.371Z,5.20
2018-10-17T04:52:04.561Z,5.20
2018-10-17T04:54:39.205Z,5.20
2018-10-17T04:57:17.440Z,5.20
2018-10-17T04:59:57.347Z,5.30
2018-10-17T05:02:39.503Z,5.40
2018-10-17T05:05:14.585Z,5.50
2018-10-17T05:08:00.476Z,5.40
2018-10-17T05:10:35.897Z,5.20
2018-10-17T05:13:11.195Z,5.30
2018-10-17T05:15:46.998Z,5.40
2018-10-17T05:18:24.040Z,5.40
2018-10-17T05:21:01.406Z,5.20
2018-10-17T05:23:37.014Z,5.30
2018-10-17T05:26:13.887Z,5.40
2018-10-17T05:28:49.358Z,5.30
2018-10-17T05:34:02.076Z,5.10
2018-10-17T05:36:38.148Z,5.00
2018-10-17T05:39:15.050Z,5.00
2018-10-17T05:41:51.090Z,5.00
2018-10-17T05:44:26.661Z,5.10
2018-10-17T05:47:02.270Z,5.10
2018-10-17T05:49:37.164Z,5.20
2018-10-17T05:52:13.344Z,5.40
2018-10-17T05:57:31.785Z,5.30
2018-10-17T06:00:07.873Z,5.30
2018-10-17T06:02:43.997Z,5.20
2018-10-17T06:05:19.849Z,5.10
2018-10-17T06:07:54.722Z,5.10
2018-10-17T06:10:29.922Z,5.10
2018-10-17T06:13:08.113Z,5.10
2018-10-17T06:15:43.411Z,5.20
2018-10-17T06:18:19.042Z,5.30
2018-10-17T06:20:54.558Z,5.50
2018-10-17T06:23:29.614Z,5.60
2018-10-17T06:26:04.763Z,5.70
2018-10-17T06:28:40.064Z,5.60
2018-10-17T06:31:16.549Z,5.60
2018-10-17T06:33:53.615Z,5.60
2018-10-17T06:36:28.619Z,5.60
2018-10-17T06:39:03.692Z,5.70
2018-10-17T06:41:39.997Z,5.80
2018-10-17T06:44:16.578Z,6.00
2018-10-17T06:46:51.452Z,6.20
2018-10-17T06:49:26.254Z,6.40
2018-10-17T06:52:00.689Z,6.40
2018-10-17T06:54:35.499Z,6.70
2018-10-17T06:57:09.970Z,6.90
2018-10-17T06:59:44.521Z,7.50
2018-10-17T07:02:20.398Z,7.90
2018-10-17T07:04:55.114Z,8.10
2018-10-17T07:07:30.163Z,8.20
2018-10-17T07:10:04.693Z,8.20
2018-10-17T07:12:39.909Z,8.40
2018-10-17T07:15:14.502Z,8.60
2018-10-17T07:18:17.601Z,8.70
2018-10-17T07:20:57.641Z,8.90
2018-10-17T07:23:33.463Z,9.20
2018-10-17T07:26:08.039Z,9.30
2018-10-17T07:28:42.622Z,9.50
2018-10-17T07:31:18.807Z,9.70
2018-10-17T07:33:56.030Z,9.80
2018-10-17T07:36:31.071Z,9.90
2018-10-17T07:39:10.437Z,10.00
2018-10-17T07:41:45.535Z,10.30
2018-10-17T07:44:19.982Z,10.40
2018-10-17T07:46:54.857Z,10.80
2018-10-17T07:49:29.268Z,11.10
2018-10-17T07:52:04.174Z,12.00
2018-10-17T07:54:38.755Z,12.20
2018-10-17T07:57:13.706Z,12.90
2018-10-17T07:59:48.343Z,12.90
2018-10-17T08:02:23.174Z,12.60
2018-10-17T08:04:57.977Z,12.40
2018-10-17T08:07:32.608Z,12.50
2018-10-17T08:10:08.481Z,12.80
2018-10-17T08:12:43.346Z,12.90
2018-10-17T08:15:18.362Z,12.90
2018-10-17T08:17:53.208Z,12.90
2018-10-17T08:20:27.593Z,13.00
2018-10-17T08:23:07.701Z,13.20
2018-10-17T08:28:21.860Z,13.60
2018-10-17T08:30:57.913Z,13.70
2018-10-17T08:33:34.105Z,13.80
2018-10-17T08:36:09.076Z,13.90
2018-10-17T08:38:44.075Z,14.10
2018-10-17T08:41:19.478Z,14.20
2018-10-17T08:43:54.504Z,14.10
2018-10-17T08:46:29.600Z,14.40
2018-10-17T08:49:04.505Z,14.50
2018-10-17T08:51:39.421Z,14.90
2018-10-17T08:54:15.620Z,14.90
2018-10-17T08:56:50.534Z,15.40
2018-10-17T08:59:25.133Z,15.10
2018-10-17T09:02:02.140Z,14.90
2018-10-17T09:04:44.942Z,14.70
2018-10-17T09:07:19.601Z,14.70
2018-10-17T09:09:54.251Z,14.90
2018-10-17T09:12:28.901Z,15.50
2018-10-17T09:15:05.359Z,16.10
2018-10-17T09:17:40.045Z,16.40
2018-10-17T09:20:14.901Z,16.30
2018-10-17T09:22:49.365Z,16.30
2018-10-17T09:25:25.470Z,16.60
2018-10-17T09:28:19.252Z,16.80
2018-10-17T09:31:07.914Z,17.30
2018-10-17T09:33:58.319Z,17.60
2018-10-17T09:37:00.761Z,18.50
2018-10-17T09:39:39.823Z,18.60
2018-10-17T09:42:14.641Z,18.70
2018-10-17T09:44:50.382Z,19.20
2018-10-17T09:47:25.267Z,19.30
2018-10-17T09:50:00.152Z,18.90
2018-10-17T09:52:35.183Z,18.30
2018-10-17T09:55:10.419Z,18.10
2018-10-17T09:57:45.314Z,18.50
2018-10-17T10:00:25.224Z,18.80
2018-10-17T10:03:00.360Z,18.70
2018-10-17T10:05:34.909Z,19.00
2018-10-17T10:08:10.716Z,19.20
2018-10-17T10:10:51.327Z,19.20
2018-10-17T10:13:27.105Z,19.70
2018-10-17T10:16:01.963Z,19.70
2018-10-17T10:18:36.888Z,20.70
2018-10-17T10:21:13.565Z,21.20
2018-10-17T10:23:59.408Z,21.50
2018-10-17T10:26:34.291Z,21.80
2018-10-17T10:29:10.255Z,21.80
2018-10-17T10:31:44.886Z,20.80
2018-10-17T10:34:19.761Z,20.80
2018-10-17T10:36:54.802Z,20.60
2018-10-17T10:39:30.619Z,20.60
2018-10-17T10:42:06.432Z,20.90
2018-10-17T10:44:41.148Z,21.70
2018-10-17T10:47:15.989Z,21.00
2018-10-17T10:49:50.659Z,20.90
2018-10-17T10:52:25.519Z,21.40
2018-10-17T10:55:00.318Z,21.40
2018-10-17T10:57:35.007Z,21.90
2018-10-17T11:00:10.309Z,21.80
2018-10-17T11:02:45.169Z,21.60
2018-10-17T11:05:20.315Z,21.20
2018-10-17T11:07:56.552Z,21.10
2018-10-17T11:10:39.026Z,21.20
2018-10-17T11:15:51.932Z,22.10
2018-10-17T11:18:27.175Z,22.30
2018-10-17T11:21:02.410Z,23.00
2018-10-17T11:23:37.599Z,23.40
2018-10-17T11:26:12.981Z,23.50
2018-10-17T11:28:48.598Z,23.80
2018-10-17T11:31:24.789Z,23.90
2018-10-17T11:33:59.801Z,24.20
2018-10-17T11:36:35.461Z,24.30
2018-10-17T11:39:30.723Z,24.30
2018-10-17T11:42:06.625Z,24.40
2018-10-17T11:44:42.720Z,24.80
2018-10-17T11:47:18.432Z,25.20
2018-10-17T11:49:53.281Z,25.10
2018-10-17T11:52:28.769Z,24.90
2018-10-17T11:55:07.869Z,24.90
2018-10-17T11:57:44.522Z,25.10
2018-10-17T12:00:19.629Z,25.50
2018-10-17T12:02:54.328Z,25.70
2018-10-17T12:05:29.359Z,26.20
2018-10-17T12:08:08.681Z,26.40
2018-10-17T12:10:44.024Z,27.10
2018-10-17T12:13:19.137Z,27.10
2018-10-17T12:15:53.939Z,27.30
2018-10-17T12:18:29.001Z,26.80
2018-10-17T12:21:04.049Z,26.80
2018-10-17T12:23:38.693Z,26.80
2018-10-17T12:26:13.418Z,26.90
2018-10-17T12:28:50.255Z,26.70
2018-10-17T12:31:26.027Z,27.00
2018-10-17T12:34:01.136Z,27.30
2018-10-17T12:36:40.883Z,27.70
2018-10-17T12:39:19.298Z,27.70
2018-10-17T12:41:56.894Z,27.50
2018-10-17T12:44:36.698Z,27.10
2018-10-17T12:47:11.373Z,27.50
2018-10-17T12:49:47.240Z,27.70
2018-10-17T12:52:23.491Z,27.90
2018-10-17T12:54:58.047Z,27.90
2018-10-17T12:57:33.174Z,28.10
2018-10-17T13:00:09.445Z,28.30
2018-10-17T13:02:45.063Z,28.20
2018-10-17T13:05:20.665Z,28.10
2018-10-17T13:07:55.054Z,28.30
2018-10-17T13:10:30.174Z,28.10
2018-10-17T13:15:55.816Z,28.10
2018-10-17T13:18:30.684Z,28.50
2018-10-17T13:21:05.517Z,28.70
2018-10-17T13:23:40.127Z,28.60
2018-10-17T13:26:15.320Z,28.70
2018-10-17T13:28:53.387Z,28.40
2018-10-17T13:31:29.432Z,28.30
2018-10-17T13:34:04.437Z,28.60
2018-10-17T13:36:38.964Z,29.20
2018-10-17T13:39:14.319Z,29.60
2018-10-17T13:41:49.783Z,29.60
2018-10-17T13:44:25.490Z,29.10
2018-10-17T13:47:00.881Z,28.80
2018-10-17T13:49:52.399Z,29.20
2018-10-17T13:54:30.094Z,29.10
2018-10-17T13:57:41.286Z,28.40
2018-10-17T14:00:36.313Z,28.30
2018-10-17T14:03:37.142Z,28.30
2018-10-17T14:09:42.842Z,29.20
2018-10-17T14:12:25.549Z,29.60
2018-10-17T14:15:01.233Z,29.80
2018-10-17T14:17:36.560Z,30.30
2018-10-17T14:20:11.780Z,30.20
2018-10-17T14:22:48.046Z,29.90
2018-10-17T14:25:25.030Z,29.60
2018-10-17T14:28:00.901Z,29.50
2018-10-17T14:30:38.166Z,29.50
2018-10-17T14:33:38.212Z,28.90
2018-10-17T14:36:12.989Z,28.90
2018-10-17T14:38:47.758Z,28.70
2018-10-17T14:41:23.827Z,28.90
2018-10-17T14:43:59.566Z,28.80
2018-10-17T14:46:39.635Z,29.00
2018-10-17T14:49:14.676Z,28.60
2018-10-17T14:51:49.335Z,28.30
2018-10-17T14:54:24.287Z,27.80
2018-10-17T15:00:02.550Z,26.80
2018-10-17T15:02:37.537Z,26.70
2018-10-17T15:05:12.842Z,26.40
2018-10-17T15:07:47.588Z,26.40
2018-10-17T15:10:22.420Z,26.50
2018-10-17T15:12:57.915Z,26.60
2018-10-17T15:15:37.238Z,26.70
2018-10-17T15:18:12.211Z,26.70
2018-10-17T15:24:11.051Z,26.30
2018-10-17T15:26:45.889Z,25.90
2018-10-17T15:29:20.852Z,25.30
2018-10-17T15:31:55.533Z,24.80
2018-10-17T15:34:30.224Z,24.30
2018-10-17T15:37:05.714Z,24.00
2018-10-17T15:39:40.425Z,23.60
2018-10-17T15:42:15.522Z,23.20
2018-10-17T15:44:50.373Z,22.90
2018-10-17T15:47:25.219Z,22.60
2018-10-17T15:50:00.173Z,22.20
2018-10-17T15:52:39.569Z,22.00
2018-10-17T15:55:14.780Z,21.80
2018-10-17T15:57:49.878Z,21.60
2018-10-17T16:00:26.648Z,21.30
2018-10-17T16:03:02.089Z,21.10
2018-10-17T16:05:37.190Z,20.90
2018-10-17T16:10:51.928Z,20.50
2018-10-17T16:13:27.121Z,20.20
2018-10-17T16:16:02.656Z,20.20
2018-10-17T16:18:37.682Z,19.90
2018-10-17T16:21:11.993Z,19.70
2018-10-17T16:23:47.059Z,19.60
2018-10-17T16:26:21.803Z,19.30
2018-10-17T16:28:57.138Z,19.00
2018-10-17T16:31:33.939Z,18.80
2018-10-17T16:34:14.207Z,18.70
2018-10-17T16:36:52.152Z,18.50
2018-10-17T16:39:29.509Z,18.40
2018-10-17T16:42:10.733Z,18.20
2018-10-17T16:44:45.390Z,18.00
2018-10-17T16:47:21.438Z,17.90
2018-10-17T16:50:01.782Z,17.70
2018-10-17T16:52:38.037Z,17.60
2018-10-17T16:55:14.303Z,17.60
2018-10-17T16:57:50.196Z,17.60
2018-10-17T17:00:26.004Z,17.40
2018-10-17T17:03:01.065Z,17.40
2018-10-17T17:05:44.167Z,17.30
2018-10-17T17:08:24.023Z,17.20
2018-10-17T17:11:02.364Z,17.10
2018-10-17T17:13:39.331Z,17.00
2018-10-17T17:16:16.483Z,16.90
2018-10-17T17:18:53.438Z,16.80
2018-10-17T17:21:31.857Z,16.70
2018-10-17T17:24:11.976Z,16.50
2018-10-17T17:26:50.468Z,16.40
2018-10-17T17:29:30.205Z,16.40
2018-10-17T17:32:09.803Z,16.30
2018-10-17T17:34:46.961Z,16.00
2018-10-17T17:37:24.519Z,15.80
2018-10-17T17:40:01.121Z,15.60
2018-10-17T17:42:36.256Z,15.40
2018-10-17T17:45:16.771Z,15.30
2018-10-17T17:47:51.805Z,15.00
2018-10-17T17:50:26.890Z,15.00
2018-10-17T17:53:03.408Z,14.80
2018-10-17T17:55:41.258Z,14.70
2018-10-17T17:58:17.428Z,14.50
2018-10-17T18:00:52.180Z,14.40
2018-10-17T18:03:28.025Z,14.40
2018-10-17T18:06:08.642Z,14.30
2018-10-17T18:08:49.505Z,14.30
2018-10-17T18:11:26.289Z,14.20
2018-10-17T18:14:02.671Z,14.00
2018-10-17T18:16:41.996Z,14.00
2018-10-17T18:19:18.575Z,14.00
2018-10-17T18:22:00.990Z,14.00
2018-10-17T18:24:40.553Z,14.00
2018-10-17T18:27:19.141Z,13.90
2018-10-17T18:32:49.020Z,13.50
2018-10-17T18:35:40.905Z,13.40
2018-10-17T18:38:33.016Z,13.20
2018-10-17T18:41:08.484Z,13.30
2018-10-17T18:43:50.100Z,13.20
2018-10-17T18:46:36.287Z,13.20
2018-10-17T18:49:11.275Z,13.10
2018-10-17T18:51:58.050Z,13.00
2018-10-17T18:54:43.681Z,12.80
2018-10-17T18:57:21.966Z,12.70
2018-10-17T19:00:04.114Z,12.50
2018-10-17T19:03:01.810Z,12.50
2018-10-17T19:05:49.401Z,12.40
2018-10-17T19:08:47.130Z,12.20
2018-10-17T19:11:21.617Z,12.20
2018-10-17T19:14:10.280Z,12.20
2018-10-17T19:16:46.160Z,12.10
2018-10-17T19:19:21.389Z,12.00
2018-10-17T19:21:57.967Z,11.90
2018-10-17T19:24:47.110Z,11.80
2018-10-17T19:27:23.689Z,11.80
2018-10-17T19:30:07.898Z,11.80
2018-10-17T19:32:47.344Z,11.70
2018-10-17T19:35:34.910Z,11.40
2018-10-17T19:38:16.112Z,11.50
2018-10-17T19:41:05.489Z,11.50
2018-10-17T19:44:10.467Z,11.60
2018-10-17T19:46:55.829Z,11.50
2018-10-17T19:49:45.257Z,11.60
2018-10-17T19:55:26.213Z,11.50
2018-10-17T19:58:06.320Z,11.40
2018-10-17T20:00:51.589Z,11.50
2018-10-17T20:03:27.523Z,11.30
2018-10-17T20:06:04.326Z,11.10
2018-10-17T20:08:42.429Z,11.10
2018-10-17T20:11:21.649Z,11.10
2018-10-17T20:14:06.747Z,11.10
2018-10-17T20:16:49.469Z,11.00
2018-10-17T20:19:31.683Z,10.80
2018-10-17T20:22:20.852Z,10.80
2018-10-17T20:25:07.182Z,10.80
2018-10-17T20:28:07.081Z,10.80
2018-10-17T20:30:53.047Z,10.70
2018-10-17T20:33:44.260Z,10.80
2018-10-17T20:39:02.656Z,10.70
2018-10-17T20:41:39.159Z,10.60
2018-10-17T20:44:16.710Z,10.50
2018-10-17T20:46:53.360Z,10.50
2018-10-17T20:49:30.397Z,10.50
2018-10-17T20:52:07.293Z,10.40
2018-10-17T20:54:44.712Z,10.50
2018-10-17T20:57:21.575Z,10.50
2018-10-17T21:02:37.140Z,10.50
2018-10-17T21:05:12.578Z,10.40
2018-10-17T21:07:49.272Z,10.50
2018-10-17T21:10:26.643Z,10.50
2018-10-17T21:13:03.748Z,10.50
2018-10-17T21:15:39.348Z,10.40
2018-10-17T21:18:15.732Z,10.40
2018-10-17T21:20:54.194Z,10.40
2018-10-17T21:23:33.828Z,10.40
2018-10-17T21:26:14.619Z,10.20
2018-10-17T21:28:50.454Z,10.10
2018-10-17T21:31:26.410Z,10.10
2018-10-17T21:34:04.126Z,10.20
2018-10-17T21:36:39.314Z,10.00
2018-10-17T21:39:15.444Z,9.90
2018-10-17T21:41:51.014Z,9.80
2018-10-17T21:44:26.727Z,9.70
2018-10-17T21:47:03.738Z,9.60
2018-10-17T21:49:39.682Z,9.60
2018-10-17T21:52:15.114Z,9.50
2018-10-17T21:54:50.601Z,9.70
2018-10-17T21:57:27.578Z,9.80
2018-10-17T22:00:05.135Z,9.70
2018-10-17T22:02:44.294Z,9.70
2018-10-17T22:05:20.949Z,9.60
2018-10-17T22:07:57.695Z,9.50
2018-10-17T22:10:34.281Z,9.50
2018-10-17T22:13:09.699Z,9.60
2018-10-17T22:15:45.450Z,9.60
2018-10-17T22:18:20.796Z,9.50
2018-10-17T22:20:56.663Z,9.50
2018-10-17T22:23:32.925Z,9.50
2018-10-17T22:26:09.523Z,9.30
2018-10-17T22:28:45.127Z,9.30
2018-10-17T22:31:20.395Z,9.30
2018-10-17T22:33:56.840Z,9.30
2018-10-17T22:36:33.387Z,9.30
2018-10-17T22:39:12.721Z,9.40
2018-10-17T22:44:30.467Z,9.30
2018-10-17T22:47:07.155Z,9.10
2018-10-17T22:49:43.087Z,9.20
2018-10-17T22:52:18.630Z,9.10
2018-10-17T22:54:54.422Z,9.00
2018-10-17T22:57:30.934Z,9.10
2018-10-17T23:00:08.265Z,9.10
2018-10-17T23:02:45.518Z,9.00
2018-10-17T23:05:21.485Z,9.00
2018-10-17T23:08:00.399Z,9.10
2018-10-17T23:10:36.559Z,9.00
2018-10-17T23:13:12.557Z,9.00
2018-10-17T23:15:52.425Z,8.90
2018-10-17T23:18:28.544Z,8.90
2018-10-17T23:21:05.757Z,8.80
2018-10-17T23:23:41.753Z,8.90
2018-10-17T23:26:17.837Z,8.80
2018-10-17T23:28:55.007Z,8.80
2018-10-17T23:31:30.947Z,8.80
2018-10-17T23:34:06.841Z,8.80
2018-10-17T23:36:42.699Z,8.70
2018-10-17T23:39:19.277Z,8.80
2018-10-17T23:41:55.287Z,8.80
2018-10-17T23:44:31.846Z,8.90
2018-10-17T23:47:07.722Z,8.90
2018-10-17T23:49:43.490Z,8.80
2018-10-17T23:52:18.882Z,8.80
2018-10-17T23:54:54.659Z,8.70
2018-10-17T23:57:30.547Z,8.60
